Time,TemperatureF,DewpointF,PressureIn,WindDirection,WindDirectionDegrees,WindSpeedMPH,WindSpeedGustMPH,Humidity,HourlyPrecipIn,Conditions,Clouds,dailyrainin,SoftwareType,DateUTC
2013-04-11 00:00:00,32.0,32.0,-100.00,ENE,70,0.0,0.0,99,0.00,,,0.00,,2013-04-11 04:00:00,
2013-04-11 00:10:00,32.0,32.0,-100.00,ENE,70,0.0,0.0,99,0.00,,,0.00,,2013-04-11 04:10:00,
2013-04-11 00:20:00,32.0,32.0,-100.00,ENE,70,0.0,0.0,99,0.00,,,0.00,,2013-04-11 04:20:00,
2013-04-11 00:30:00,32.0,32.0,-100.00,ENE,70,0.0,0.0,99,0.00,,,0.00,,2013-04-11 04:30:00,
2013-04-11 00:40:00,32.0,32.0,-100.00,ENE,70,0.0,0.0,99,0.00,,,0.00,,2013-04-11 04:40:00,
2013-04-11 00:50:00,32.0,32.0,-100.00,ENE,70,0.0,0.0,99,0.00,,,0.00,,2013-04-11 04:50:00,
2013-04-11 01:00:00,32.0,32.0,-100.00,ENE,70,0.0,0.0,99,0.00,,,0.00,,2013-04-11 05:00:00,
2013-04-11 02:20:00,31.0,30.0,-100.00,ENE,65,0.0,0.0,99,0.00,,,0.00,,2013-04-11 06:20:00,
2013-04-11 02:30:00,31.0,30.0,-100.00,ENE,70,0.0,0.0,99,0.00,,,0.00,,2013-04-11 06:30:00,
2013-04-11 02:40:00,31.0,30.0,-100.00,ENE,65,0.0,0.0,99,0.00,,,0.00,,2013-04-11 06:40:00,
2013-04-11 02:50:00,31.0,30.0,-100.00,ENE,65,0.0,0.0,99,0.00,,,0.00,,2013-04-11 06:50:00,
2013-04-11 03:00:00,31.0,30.0,-100.00,ENE,65,0.0,0.0,99,0.00,,,0.00,,2013-04-11 07:00:00,
2013-04-11 03:10:00,31.0,30.0,-100.00,ENE,65,0.0,0.0,99,0.00,,,0.00,,2013-04-11 07:10:00,
2013-04-11 03:20:00,31.0,30.0,-100.00,ENE,65,0.0,0.0,99,0.00,,,0.00,,2013-04-11 07:20:00,
2013-04-11 03:30:00,31.0,30.0,-100.00,ENE,65,0.0,0.0,99,0.00,,,0.00,,2013-04-11 07:30:00,
2013-04-11 03:40:00,31.0,30.0,-100.00,ENE,65,0.0,0.0,99,0.00,,,0.00,,2013-04-11 07:40:00,
2013-04-11 03:50:00,31.0,30.0,-100.00,ENE,65,0.0,0.0,99,0.00,,,0.00,,2013-04-11 07:50:00,
2013-04-11 04:00:00,31.0,30.0,-100.00,ENE,65,0.0,0.0,99,0.00,,,0.00,,2013-04-11 08:00:00,
2013-04-11 04:10:00,31.0,30.0,-100.00,ENE,65,0.0,0.0,99,0.00,,,0.00,,2013-04-11 08:10:00,
2013-04-11 04:20:00,31.0,30.0,-100.00,ENE,65,0.0,0.0,99,0.00,,,0.00,,2013-04-11 08:20:00,
2013-04-11 04:30:00,31.0,30.0,-100.00,ENE,65,0.0,0.0,99,0.00,,,0.00,,2013-04-11 08:30:00,
2013-04-11 04:50:00,31.0,30.0,-100.00,ENE,65,0.0,0.0,99,0.00,,,0.00,,2013-04-11 08:50:00,
2013-04-11 05:00:00,30.0,30.0,-100.00,ENE,65,0.0,0.0,99,0.00,,,0.00,,2013-04-11 09:00:00,
2013-04-11 05:10:00,30.0,30.0,-100.00,ENE,65,0.0,0.0,99,0.00,,,0.00,,2013-04-11 09:10:00,
2013-04-11 05:20:00,30.0,30.0,-100.00,ENE,65,0.0,0.0,99,0.00,,,0.00,,2013-04-11 09:20:00,
2013-04-11 05:30:00,30.0,30.0,-100.00,ENE,65,0.0,0.0,99,0.00,,,0.00,,2013-04-11 09:30:00,
2013-04-11 05:50:00,30.0,30.0,-100.00,ENE,65,0.0,0.0,99,0.00,,,0.01,,2013-04-11 09:50:00,
2013-04-11 07:00:00,30.0,28.0,-100.00,ENE,65,0.0,0.0,99,0.00,,,0.01,,2013-04-11 11:00:00,
2013-04-11 07:20:00,29.0,28.0,-100.00,ENE,65,0.0,0.0,99,0.00,,,0.01,,2013-04-11 11:20:00,
2013-04-11 07:30:00,29.0,28.0,-100.00,ENE,65,0.0,0.0,99,0.00,,,0.01,,2013-04-11 11:30:00,
2013-04-11 07:40:00,29.0,28.0,-100.00,ENE,65,0.0,0.0,99,0.00,,,0.01,,2013-04-11 11:40:00,
2013-04-11 07:50:00,29.0,28.0,-100.00,ENE,65,0.0,0.0,99,0.00,,,0.01,,2013-04-11 11:50:00,
2013-04-11 08:00:00,30.0,28.0,-100.00,ENE,65,0.0,0.0,99,0.00,,,0.01,,2013-04-11 12:00:00,
2013-04-11 08:30:00,30.0,30.0,-100.00,ENE,65,0.0,0.0,99,0.00,,,0.01,,2013-04-11 12:30:00,
2013-04-11 08:40:00,30.0,30.0,-100.00,ENE,65,0.0,0.0,99,0.00,,,0.01,,2013-04-11 12:40:00,
2013-04-11 08:50:00,31.0,30.0,-100.00,ENE,65,0.0,0.0,99,0.00,,,0.01,,2013-04-11 12:50:00,
2013-04-11 09:00:00,31.0,30.0,-100.00,ENE,65,0.0,0.0,99,0.00,,,0.01,,2013-04-11 13:00:00,
2013-04-11 09:20:00,31.0,30.0,-100.00,ENE,70,0.0,0.0,99,0.00,,,0.01,,2013-04-11 13:20:00,
2013-04-11 10:10:00,33.0,32.0,-100.00,ENE,70,0.0,0.0,99,0.00,,,0.01,,2013-04-11 14:10:00,
2013-04-11 17:00:00,37.0,36.0,-100.00,ENE,60,12.0,13.0,91,0.00,,,0.00,,2013-04-11 21:00:00,
2013-04-11 17:20:00,37.0,36.0,-100.00,NE,55,10.0,14.0,97,0.00,,,0.00,,2013-04-11 21:20:00,
2013-04-11 17:30:00,36.0,36.0,-100.00,NE,50,10.0,13.0,99,0.00,,,0.00,,2013-04-11 21:30:00,
2013-04-11 17:40:00,36.0,36.0,-100.00,NE,50,12.0,14.0,99,0.00,,,0.00,,2013-04-11 21:40:00,
2013-04-11 18:00:00,35.0,34.0,-100.00,NE,40,12.0,14.0,99,0.00,,,0.00,,2013-04-11 22:00:00,
2013-04-11 18:10:00,34.0,34.0,-100.00,NE,35,11.0,15.0,99,0.00,,,0.00,,2013-04-11 22:10:00,
2013-04-11 18:20:00,34.0,34.0,-100.00,NE,40,13.0,16.0,99,0.00,,,0.00,,2013-04-11 22:20:00,
2013-04-11 19:00:00,33.0,32.0,-100.00,NE,40,12.0,17.0,99,0.00,,,0.00,,2013-04-11 23:00:00,
2013-04-11 19:20:00,33.0,32.0,-100.00,NE,40,12.0,16.0,99,0.00,,,0.00,,2013-04-11 23:20:00,
2013-04-11 19:30:00,32.0,32.0,-100.00,NE,40,14.0,17.0,99,0.00,,,0.00,,2013-04-11 23:30:00,
2013-04-11 19:40:00,32.0,32.0,-100.00,NE,45,14.0,17.0,99,0.00,,,0.00,,2013-04-11 23:40:00,
2013-04-11 19:50:00,32.0,32.0,-100.00,NE,45,15.0,20.0,99,0.00,,,0.00,,2013-04-11 23:50:00,
2013-04-11 21:30:00,31.0,30.0,-100.00,NE,40,14.0,19.0,99,0.00,,,0.00,,2013-04-12 01:30:00,
2013-04-11 21:40:00,31.0,30.0,-100.00,NE,40,14.0,19.0,99,0.00,,,0.00,,2013-04-12 01:40:00,
2013-04-11 21:50:00,31.0,30.0,-100.00,NE,35,14.0,17.0,99,0.00,,,0.00,,2013-04-12 01:50:00,
2013-04-11 22:00:00,31.0,30.0,-100.00,NE,40,14.0,19.0,99,0.00,,,0.00,,2013-04-12 02:00:00,
2013-04-11 22:10:00,31.0,30.0,-100.00,NE,35,12.0,16.0,99,0.00,,,0.00,,2013-04-12 02:10:00,
2013-04-11 22:20:00,31.0,30.0,-100.00,NE,40,14.0,19.0,99,0.00,,,0.00,,2013-04-12 02:20:00,
2013-04-11 22:30:00,31.0,30.0,-100.00,NE,40,13.0,17.0,99,0.00,,,0.00,,2013-04-12 02:30:00,
2013-04-11 22:40:00,31.0,30.0,-100.00,NE,40,12.0,17.0,99,0.00,,,0.00,,2013-04-12 02:40:00,
2013-04-11 22:50:00,31.0,30.0,-100.00,NNE,25,11.0,14.0,99,0.00,,,0.00,,2013-04-12 02:50:00,
2013-04-11 23:00:00,31.0,30.0,-100.00,NNE,25,11.0,14.0,99,0.00,,,0.00,,2013-04-12 03:00:00,
2013-04-11 23:20:00,31.0,30.0,-100.00,NNE,25,12.0,15.0,99,0.00,,,0.00,,2013-04-12 03:20:00,
2013-04-11 23:30:00,31.0,30.0,-100.00,NNE,30,12.0,16.0,99,0.00,,,0.00,,2013-04-12 03:30:00,
2013-04-11 23:40:00,31.0,30.0,-100.00,NNE,25,11.0,17.0,99,0.00,,,0.00,,2013-04-12 03:40:00,
2013-04-11 23:50:00,31.0,30.0,-100.00,NNE,25,12.0,16.0,99,0.00,,,0.00,,2013-04-12 03:50:00,